createdAt,value
2019-04-22T00:00:08.474Z,0.10
2019-04-22T00:01:14.943Z,0.10
2019-04-22T00:02:11.271Z,0.10
2019-04-22T00:03:10.626Z,0.10
2019-04-22T00:04:13.293Z,0.10
2019-04-22T00:05:17.826Z,0.10
2019-04-22T00:06:30.947Z,0.10
2019-04-22T00:07:28.549Z,0.10
2019-04-22T00:08:34.209Z,0.10
2019-04-22T00:09:34.162Z,0.10
2019-04-22T00:10:33.199Z,0.10
2019-04-22T00:12:34.647Z,0.10
2019-04-22T00:13:40.785Z,0.10
2019-04-22T00:14:28.334Z,0.10
2019-04-22T00:15:27.919Z,0.10
2019-04-22T00:16:41.681Z,0.00
2019-04-22T00:17:38.687Z,0.10
2019-04-22T00:18:46.717Z,0.10
2019-04-22T00:19:35.813Z,0.10
2019-04-22T00:20:35.450Z,0.10
2019-04-22T00:21:32.032Z,0.10
2019-04-22T00:22:32.144Z,0.10
2019-04-22T00:23:31.742Z,0.10
2019-04-22T00:24:31.875Z,0.10
2019-04-22T00:25:38.932Z,0.10
2019-04-22T00:26:37.443Z,0.00
2019-04-22T00:27:34.162Z,0.10
2019-04-22T00:28:41.208Z,0.10
2019-04-22T00:30:26.773Z,0.10
2019-04-22T00:31:25.411Z,0.10
2019-04-22T00:32:30.514Z,0.00
2019-04-22T00:33:34.245Z,0.00
2019-04-22T00:34:32.447Z,0.10
2019-04-22T00:35:30.086Z,0.10
2019-04-22T00:36:28.945Z,0.10
2019-04-22T00:37:35.751Z,0.10
2019-04-22T00:38:40.846Z,0.10
2019-04-22T00:39:37.173Z,0.10
2019-04-22T00:40:33.622Z,0.10
2019-04-22T00:41:40.922Z,0.10
2019-04-22T00:42:37.474Z,0.10
2019-04-22T00:43:33.331Z,0.10
2019-04-22T00:44:35.469Z,0.10
2019-04-22T00:45:32.920Z,0.10
2019-04-22T00:46:31.367Z,0.10
2019-04-22T00:47:36.465Z,0.10
2019-04-22T00:48:33.231Z,0.10
2019-04-22T00:50:30.230Z,0.10
2019-04-22T00:51:33.600Z,0.10
2019-04-22T00:52:33.943Z,0.10
2019-04-22T00:53:34.233Z,0.10
2019-04-22T00:54:39.599Z,0.10
2019-04-22T00:55:32.680Z,0.10
2019-04-22T00:56:28.391Z,0.10
2019-04-22T00:57:35.812Z,0.10
2019-04-22T00:58:31.194Z,0.10
2019-04-22T00:59:33.016Z,0.10
2019-04-22T01:00:36.363Z,0.10
2019-04-22T01:01:31.826Z,0.00
2019-04-22T01:02:34.240Z,0.10
2019-04-22T01:03:35.262Z,0.10
2019-04-22T01:04:39.152Z,0.10
2019-04-22T01:05:38.748Z,0.10
2019-04-22T01:06:49.441Z,0.10
2019-04-22T01:07:30.819Z,0.10
2019-04-22T01:08:40.944Z,0.10
2019-04-22T01:09:30.317Z,0.10
2019-04-22T01:10:31.768Z,0.10
2019-04-22T01:12:31.916Z,0.10
2019-04-22T01:13:30.440Z,0.00
2019-04-22T01:14:34.256Z,0.10
2019-04-22T01:15:39.078Z,0.10
2019-04-22T01:16:28.349Z,0.10
2019-04-22T01:17:34.358Z,0.10
2019-04-22T01:18:29.452Z,0.10
2019-04-22T01:20:54.563Z,0.00
2019-04-22T01:21:38.565Z,0.10
2019-04-22T01:22:26.475Z,0.10
2019-04-22T01:23:30.011Z,0.10
2019-04-22T01:24:27.805Z,0.10
2019-04-22T01:25:24.972Z,0.10
2019-04-22T01:26:26.899Z,0.10
2019-04-22T01:27:20.643Z,0.00
2019-04-22T01:28:23.921Z,0.00
2019-04-22T01:29:20.173Z,0.00
2019-04-22T01:30:18.655Z,0.10
2019-04-22T01:31:13.534Z,0.00
2019-04-22T01:32:15.303Z,0.10
2019-04-22T01:33:17.325Z,0.10
2019-04-22T01:34:24.222Z,0.10
2019-04-22T01:35:20.928Z,0.10
2019-04-22T01:36:25.990Z,0.10
2019-04-22T01:37:23.958Z,0.10
2019-04-22T01:38:23.577Z,0.10
2019-04-22T01:39:31.828Z,0.10
2019-04-22T01:40:33.509Z,0.10
2019-04-22T01:41:42.394Z,0.10
2019-04-22T01:42:32.710Z,0.10
2019-04-22T01:43:41.009Z,0.10
2019-04-22T01:44:34.506Z,0.10
2019-04-22T01:45:33.079Z,0.10
2019-04-22T01:46:36.929Z,0.10
2019-04-22T01:47:43.940Z,0.10
2019-04-22T01:48:32.524Z,0.10
2019-04-22T01:49:34.386Z,0.00
2019-04-22T01:50:32.033Z,0.00
2019-04-22T01:51:49.969Z,0.10
2019-04-22T01:52:31.393Z,0.10
2019-04-22T01:53:33.744Z,0.10
2019-04-22T01:54:35.381Z,0.10
2019-04-22T01:55:36.978Z,0.10
2019-04-22T01:56:33.287Z,0.10
2019-04-22T01:57:28.753Z,0.10
2019-04-22T01:58:30.772Z,0.10
2019-04-22T01:59:28.647Z,0.10
2019-04-22T02:00:38.343Z,0.10
2019-04-22T02:01:41.732Z,0.10
2019-04-22T02:03:34.671Z,0.10
2019-04-22T02:04:38.253Z,0.00
2019-04-22T02:05:28.976Z,0.00
2019-04-22T02:06:36.386Z,0.10
2019-04-22T02:08:40.882Z,0.10
2019-04-22T02:10:40.327Z,0.10
2019-04-22T02:11:40.622Z,0.10
2019-04-22T02:12:33.651Z,0.10
2019-04-22T02:13:36.651Z,0.10
2019-04-22T02:14:37.300Z,0.10
2019-04-22T02:15:31.651Z,0.10
2019-04-22T02:16:34.004Z,0.10
2019-04-22T02:18:44.980Z,0.10
2019-04-22T02:19:54.892Z,0.10
2019-04-22T02:20:31.467Z,0.10
2019-04-22T02:21:28.649Z,0.10
2019-04-22T02:22:50.835Z,0.10
2019-04-22T02:24:35.314Z,0.00
2019-04-22T02:25:36.555Z,0.10
2019-04-22T02:26:38.651Z,0.10
2019-04-22T02:27:49.319Z,0.10
2019-04-22T02:28:38.432Z,0.00
2019-04-22T02:29:41.980Z,0.10
2019-04-22T02:30:59.472Z,0.10
2019-04-22T02:31:49.135Z,0.10
2019-04-22T02:34:40.195Z,0.10
2019-04-22T02:35:52.260Z,0.10
2019-04-22T02:36:35.809Z,0.10
2019-04-22T02:37:35.916Z,0.10
2019-04-22T02:39:34.263Z,0.10
2019-04-22T02:40:50.769Z,0.10
2019-04-22T02:41:30.985Z,0.10
2019-04-22T02:42:51.832Z,0.10
2019-04-22T02:44:35.518Z,0.10
2019-04-22T02:45:52.551Z,0.10
2019-04-22T02:46:53.247Z,0.10
2019-04-22T02:47:50.538Z,0.10
2019-04-22T02:50:36.594Z,0.10
2019-04-22T02:55:40.910Z,0.10
2019-04-22T02:56:35.986Z,0.10
2019-04-22T02:57:39.912Z,0.10
2019-04-22T02:58:52.327Z,0.10
2019-04-22T03:00:40.218Z,0.10
2019-04-22T03:01:36.939Z,0.00
2019-04-22T03:02:50.550Z,0.10
2019-04-22T03:04:01.585Z,0.10
2019-04-22T03:04:28.401Z,0.10
2019-04-22T03:06:34.903Z,0.10
2019-04-22T03:07:37.690Z,0.10
2019-04-22T03:09:41.110Z,0.10
2019-04-22T03:11:49.688Z,0.10
2019-04-22T03:14:38.138Z,0.10
2019-04-22T03:15:48.395Z,0.00
2019-04-22T03:16:40.550Z,0.10
2019-04-22T03:17:58.414Z,0.10
2019-04-22T03:20:37.743Z,0.10
2019-04-22T03:22:34.620Z,0.10
2019-04-22T03:23:47.559Z,0.10
2019-04-22T03:24:38.178Z,0.00
2019-04-22T03:27:37.203Z,0.00
2019-04-22T03:29:48.584Z,0.00
2019-04-22T03:33:43.627Z,0.10
2019-04-22T03:37:04.422Z,0.10
2019-04-22T03:37:53.099Z,0.00
2019-04-22T03:39:01.491Z,0.10
2019-04-22T03:40:46.358Z,0.10
2019-04-22T03:42:31.980Z,0.10
2019-04-22T03:43:42.488Z,0.10
2019-04-22T03:44:39.209Z,0.10
2019-04-22T03:45:38.020Z,0.10
2019-04-22T03:46:44.401Z,0.10
2019-04-22T03:48:38.178Z,0.10
2019-04-22T03:51:49.823Z,0.10
2019-04-22T03:52:30.998Z,0.10
2019-04-22T03:55:38.404Z,0.10
2019-04-22T03:58:40.993Z,0.10
2019-04-22T03:59:42.124Z,0.10
2019-04-22T04:00:42.920Z,0.10
2019-04-22T04:01:44.213Z,0.10
2019-04-22T04:03:39.572Z,0.10
2019-04-22T04:06:54.242Z,0.00
2019-04-22T04:07:57.666Z,0.10
2019-04-22T04:08:51.592Z,0.10
2019-04-22T04:10:47.988Z,0.10
2019-04-22T04:11:52.495Z,0.10
2019-04-22T04:12:42.015Z,0.10
2019-04-22T04:15:32.749Z,0.10
2019-04-22T04:16:39.108Z,0.10
2019-04-22T04:17:53.851Z,0.10
2019-04-22T04:19:00.255Z,0.10
2019-04-22T04:19:43.840Z,0.10
2019-04-22T04:20:36.464Z,0.10
2019-04-22T04:23:49.667Z,0.10
2019-04-22T04:24:55.445Z,0.10
2019-04-22T04:25:44.387Z,0.10
2019-04-22T04:30:31.468Z,0.10
2019-04-22T04:32:51.302Z,0.10
2019-04-22T04:33:38.521Z,0.10
2019-04-22T04:34:57.724Z,0.10
2019-04-22T04:36:42.461Z,0.10
2019-04-22T04:37:46.934Z,0.10
2019-04-22T04:38:46.157Z,0.10
2019-04-22T04:39:43.680Z,0.00
2019-04-22T04:40:34.981Z,0.00
2019-04-22T04:42:43.126Z,0.10
2019-04-22T04:43:50.593Z,0.10
2019-04-22T04:45:49.296Z,0.10
2019-04-22T04:47:47.726Z,0.10
2019-04-22T04:49:50.180Z,0.10
2019-04-22T04:50:44.126Z,0.00
2019-04-22T04:51:43.999Z,0.00
2019-04-22T04:54:35.875Z,0.10
2019-04-22T04:56:40.632Z,0.10
2019-04-22T04:57:49.164Z,0.10
2019-04-22T04:59:53.730Z,0.00
2019-04-22T05:01:44.618Z,0.00
2019-04-22T05:02:55.891Z,0.00
2019-04-22T05:03:49.759Z,0.00
2019-04-22T05:04:51.004Z,0.00
2019-04-22T05:05:35.277Z,0.10
2019-04-22T05:09:39.952Z,0.10
2019-04-22T05:11:47.423Z,0.10
2019-04-22T05:13:50.067Z,0.10
2019-04-22T05:14:43.638Z,0.10
2019-04-22T05:15:35.037Z,0.10
2019-04-22T05:18:39.578Z,0.10
2019-04-22T05:20:42.686Z,0.10
2019-04-22T05:22:35.684Z,0.00
2019-04-22T05:23:39.342Z,0.10
2019-04-22T05:25:26.727Z,0.10
2019-04-22T05:26:32.587Z,0.10
2019-04-22T05:27:34.699Z,0.10
2019-04-22T05:28:30.047Z,0.10
2019-04-22T05:29:43.483Z,0.10
2019-04-22T05:30:39.568Z,0.10
2019-04-22T05:33:32.180Z,0.10
2019-04-22T05:34:31.823Z,0.10
2019-04-22T05:35:35.660Z,0.10
2019-04-22T05:36:37.983Z,0.10
2019-04-22T05:37:34.124Z,0.10
2019-04-22T05:38:33.188Z,0.10
2019-04-22T05:39:33.968Z,0.10
2019-04-22T05:41:30.002Z,0.10
2019-04-22T05:42:23.391Z,0.10
2019-04-22T05:43:27.235Z,0.10
2019-04-22T05:44:32.571Z,0.10
2019-04-22T05:45:24.970Z,0.10
2019-04-22T05:46:28.582Z,0.10
2019-04-22T05:47:30.753Z,0.10
2019-04-22T05:48:34.242Z,0.10
2019-04-22T05:49:28.873Z,0.10
2019-04-22T05:50:45.245Z,0.10
2019-04-22T05:51:31.448Z,0.10
2019-04-22T05:52:26.872Z,0.10
2019-04-22T05:53:28.410Z,0.10
2019-04-22T05:56:40.807Z,0.10
2019-04-22T05:57:46.559Z,0.10
2019-04-22T05:58:31.376Z,0.10
2019-04-22T05:59:34.329Z,0.10
2019-04-22T06:00:47.643Z,0.00
2019-04-22T06:01:40.337Z,0.00
2019-04-22T06:02:40.160Z,0.10
2019-04-22T06:03:28.762Z,0.10
2019-04-22T06:04:30.334Z,0.00
2019-04-22T06:05:33.103Z,0.10
2019-04-22T06:06:44.952Z,0.10
2019-04-22T06:07:26.769Z,0.10
2019-04-22T06:08:29.477Z,0.10
2019-04-22T06:09:30.311Z,0.10
2019-04-22T06:10:33.102Z,0.10
2019-04-22T06:12:23.509Z,0.10
2019-04-22T06:13:26.787Z,0.10
2019-04-22T06:14:25.889Z,0.10
2019-04-22T06:15:33.100Z,0.10
2019-04-22T06:16:30.836Z,0.00
2019-04-22T06:17:31.308Z,0.10
2019-04-22T06:18:30.912Z,0.10
2019-04-22T06:19:24.512Z,0.10
2019-04-22T06:20:32.543Z,0.10
2019-04-22T06:21:35.803Z,0.10
2019-04-22T06:22:37.199Z,0.10
2019-04-22T06:23:36.383Z,0.10
2019-04-22T06:24:27.896Z,0.10
2019-04-22T06:25:38.814Z,0.10
2019-04-22T06:26:40.887Z,0.00
2019-04-22T06:28:34.852Z,0.00
2019-04-22T06:29:30.153Z,0.10
2019-04-22T06:30:29.142Z,0.10
2019-04-22T06:31:37.197Z,0.10
2019-04-22T06:32:32.854Z,0.10
2019-04-22T06:33:34.691Z,0.10
2019-04-22T06:34:30.737Z,0.10
2019-04-22T06:36:30.888Z,0.10
2019-04-22T06:37:54.989Z,0.10
2019-04-22T06:40:31.810Z,0.10
2019-04-22T06:41:27.272Z,0.10
2019-04-22T06:42:33.087Z,0.10
2019-04-22T06:43:29.865Z,0.10
2019-04-22T06:44:29.629Z,0.10
2019-04-22T06:45:29.115Z,0.10
2019-04-22T06:46:50.625Z,0.10
2019-04-22T06:47:43.966Z,0.10
2019-04-22T06:48:39.789Z,0.10
2019-04-22T06:49:31.897Z,0.10
2019-04-22T06:51:35.627Z,0.10
2019-04-22T06:52:49.946Z,0.10
2019-04-22T06:53:29.885Z,0.10
2019-04-22T06:54:28.255Z,0.10
2019-04-22T06:55:38.992Z,0.10
2019-04-22T06:56:27.825Z,0.10
2019-04-22T06:57:30.493Z,0.10
2019-04-22T06:58:29.002Z,0.10
2019-04-22T06:59:42.671Z,0.10
2019-04-22T07:00:32.532Z,0.10
2019-04-22T07:01:30.953Z,0.10
2019-04-22T07:02:32.129Z,0.10
2019-04-22T07:03:45.885Z,0.10
2019-04-22T07:04:31.497Z,0.10
2019-04-22T07:05:30.504Z,0.10
2019-04-22T07:07:24.066Z,0.20
2019-04-22T07:09:03.259Z,0.10
2019-04-22T07:09:38.704Z,0.20
2019-04-22T07:10:35.226Z,0.20
2019-04-22T07:11:28.118Z,0.10
2019-04-22T07:12:29.121Z,0.20
2019-04-22T07:13:35.889Z,0.10
2019-04-22T07:14:22.378Z,0.20
2019-04-22T07:15:42.157Z,0.20
2019-04-22T07:16:35.073Z,0.20
2019-04-22T07:17:30.970Z,0.20
2019-04-22T07:18:33.025Z,0.20
2019-04-22T07:19:28.167Z,0.20
2019-04-22T07:20:31.634Z,0.20
2019-04-22T07:22:27.800Z,0.20
2019-04-22T07:25:29.145Z,0.20
2019-04-22T07:26:24.491Z,0.30
2019-04-22T07:27:29.265Z,0.30
2019-04-22T07:28:27.474Z,0.30
2019-04-22T07:29:27.868Z,0.30
2019-04-22T07:30:26.261Z,0.30
2019-04-22T07:31:28.571Z,0.30
2019-04-22T07:33:33.777Z,0.30
2019-04-22T07:36:45.633Z,0.30
2019-04-22T07:38:26.378Z,0.30
2019-04-22T07:39:30.861Z,0.30
2019-04-22T07:40:34.108Z,0.30
2019-04-22T07:42:32.825Z,0.30
2019-04-22T07:43:42.505Z,0.40
2019-04-22T07:44:36.979Z,0.40
2019-04-22T07:45:29.647Z,0.40
2019-04-22T07:46:51.638Z,0.40
2019-04-22T07:47:46.483Z,0.40
2019-04-22T07:48:39.390Z,0.40
2019-04-22T07:49:33.495Z,0.40
2019-04-22T07:50:44.443Z,0.40
2019-04-22T07:51:30.078Z,0.40
2019-04-22T07:52:31.989Z,0.40
2019-04-22T07:53:27.892Z,0.40
2019-04-22T07:54:25.998Z,0.40
2019-04-22T07:55:29.464Z,0.50
2019-04-22T07:56:33.177Z,0.50
2019-04-22T07:58:30.748Z,0.50
2019-04-22T07:59:30.714Z,0.50
2019-04-22T08:00:33.076Z,0.40
2019-04-22T08:01:26.616Z,0.50
2019-04-22T08:02:35.569Z,0.50
2019-04-22T08:03:38.112Z,0.50
2019-04-22T08:05:37.209Z,0.50
2019-04-22T08:06:29.607Z,0.60
2019-04-22T08:07:33.083Z,0.50
2019-04-22T08:09:41.791Z,0.60
2019-04-22T08:12:36.020Z,0.60
2019-04-22T08:13:31.496Z,0.60
2019-04-22T08:14:30.115Z,0.60
2019-04-22T08:15:33.054Z,0.70
2019-04-22T08:16:28.536Z,0.70
2019-04-22T08:18:35.922Z,0.70
2019-04-22T08:19:27.957Z,0.70
2019-04-22T08:20:31.921Z,0.70
2019-04-22T08:21:29.925Z,0.70
2019-04-22T08:22:30.498Z,0.70
2019-04-22T08:23:31.646Z,0.80
2019-04-22T08:24:35.693Z,0.80
2019-04-22T08:25:34.832Z,0.80
2019-04-22T08:26:32.099Z,0.80
2019-04-22T08:27:33.442Z,0.80
2019-04-22T08:28:31.984Z,0.70
2019-04-22T08:29:37.616Z,0.80
2019-04-22T08:30:33.767Z,0.80
2019-04-22T08:32:36.094Z,0.80
2019-04-22T08:33:35.279Z,0.90
2019-04-22T08:34:29.617Z,0.90
2019-04-22T08:35:50.228Z,0.90
2019-04-22T08:36:31.632Z,1.00
2019-04-22T08:38:36.834Z,1.10
2019-04-22T08:39:40.610Z,1.20
2019-04-22T08:41:33.532Z,1.30
2019-04-22T08:42:50.017Z,1.30
2019-04-22T08:43:36.382Z,1.40
2019-04-22T08:44:55.320Z,1.40
2019-04-22T08:45:31.883Z,1.50
2019-04-22T08:47:34.518Z,1.40
2019-04-22T08:48:29.652Z,1.50
2019-04-22T08:49:34.438Z,1.50
2019-04-22T08:50:26.835Z,1.60
2019-04-22T08:52:28.959Z,1.60
2019-04-22T08:53:34.326Z,1.50
2019-04-22T08:54:24.504Z,1.60
2019-04-22T08:55:25.271Z,1.50
2019-04-22T08:56:33.620Z,1.50
2019-04-22T08:57:40.793Z,1.50
2019-04-22T08:58:27.636Z,1.50
2019-04-22T08:59:43.653Z,1.50
2019-04-22T09:00:31.325Z,1.60
2019-04-22T09:01:27.072Z,1.60
2019-04-22T09:02:32.695Z,1.70
2019-04-22T09:03:31.829Z,1.80
2019-04-22T09:04:24.033Z,1.90
2019-04-22T09:05:43.511Z,2.00
2019-04-22T09:06:46.796Z,1.90
2019-04-22T09:08:48.844Z,2.10
2019-04-22T09:09:33.922Z,2.10
2019-04-22T09:10:33.818Z,2.10
2019-04-22T09:11:38.763Z,2.10
2019-04-22T09:13:30.043Z,2.10
2019-04-22T09:14:32.386Z,2.00
2019-04-22T09:15:31.022Z,2.10
2019-04-22T09:16:32.056Z,2.10
2019-04-22T09:17:31.579Z,2.00
2019-04-22T09:18:51.156Z,2.00
2019-04-22T09:19:30.087Z,2.00
2019-04-22T09:20:32.597Z,1.90
2019-04-22T09:21:34.373Z,1.90
2019-04-22T09:22:26.312Z,1.90
2019-04-22T09:23:33.886Z,1.90
2019-04-22T09:24:29.528Z,1.90
2019-04-22T09:25:29.865Z,1.90
2019-04-22T09:26:36.098Z,1.90
2019-04-22T09:27:37.048Z,1.90
2019-04-22T09:28:32.682Z,1.80
2019-04-22T09:29:34.161Z,1.90
2019-04-22T09:30:34.331Z,1.90
2019-04-22T09:31:29.204Z,1.90
2019-04-22T09:32:34.744Z,1.90
2019-04-22T09:33:28.505Z,1.90
2019-04-22T09:34:33.805Z,1.90
2019-04-22T09:35:31.913Z,1.90
2019-04-22T09:37:34.869Z,2.10
2019-04-22T09:38:37.971Z,2.10
2019-04-22T09:39:55.337Z,2.10
2019-04-22T09:40:28.989Z,2.10
2019-04-22T09:41:33.746Z,2.00
2019-04-22T09:42:31.921Z,1.90
2019-04-22T09:43:38.245Z,1.90
2019-04-22T09:44:34.788Z,1.90
2019-04-22T09:45:29.368Z,1.90
2019-04-22T09:46:39.027Z,1.90
2019-04-22T09:47:37.248Z,1.80
2019-04-22T09:49:36.935Z,2.00
2019-04-22T09:51:32.149Z,1.90
2019-04-22T09:52:27.999Z,2.00
2019-04-22T09:53:32.218Z,2.00
2019-04-22T09:54:38.708Z,2.10
2019-04-22T09:55:31.215Z,2.10
2019-04-22T09:56:31.882Z,2.20
2019-04-22T09:58:33.601Z,2.20
2019-04-22T09:59:28.545Z,2.10
2019-04-22T10:00:28.668Z,2.20
2019-04-22T10:01:53.091Z,2.10
2019-04-22T10:02:49.061Z,2.20
2019-04-22T10:03:25.867Z,2.30
2019-04-22T10:04:33.580Z,2.20
2019-04-22T10:05:38.540Z,2.10
2019-04-22T10:07:39.167Z,2.20
2019-04-22T10:08:33.791Z,2.20
2019-04-22T10:10:26.857Z,2.30
2019-04-22T10:11:32.622Z,2.30
2019-04-22T10:12:32.146Z,2.30
2019-04-22T10:13:36.129Z,2.30
2019-04-22T10:14:36.590Z,2.30
2019-04-22T10:15:37.529Z,2.20
2019-04-22T10:17:32.462Z,2.20
2019-04-22T10:18:32.533Z,2.20
2019-04-22T10:19:31.360Z,2.10
2019-04-22T10:20:32.772Z,2.20
2019-04-22T10:22:32.464Z,2.00
2019-04-22T10:23:33.041Z,2.00
2019-04-22T10:24:26.346Z,2.00
2019-04-22T10:25:31.302Z,2.10
2019-04-22T10:26:34.885Z,2.10
2019-04-22T10:27:26.222Z,2.20
2019-04-22T10:28:35.576Z,2.30
2019-04-22T10:29:38.626Z,2.30
2019-04-22T10:30:39.281Z,2.30
2019-04-22T10:31:43.521Z,2.30
2019-04-22T10:32:31.943Z,2.20
2019-04-22T10:33:26.897Z,2.20
2019-04-22T10:34:16.761Z,2.10
2019-04-22T10:35:09.275Z,2.00
2019-04-22T10:36:05.837Z,1.80
2019-04-22T10:37:11.005Z,1.90
2019-04-22T10:38:06.085Z,1.80
2019-04-22T10:39:06.361Z,1.90
2019-04-22T10:40:08.223Z,1.90
2019-04-22T10:41:05.002Z,1.90
2019-04-22T10:42:05.055Z,1.80
2019-04-22T10:43:05.391Z,1.80
2019-04-22T10:44:05.407Z,1.70
2019-04-22T10:45:06.053Z,1.80
2019-04-22T10:46:06.210Z,1.70
2019-04-22T10:47:06.300Z,1.70
2019-04-22T10:48:06.085Z,1.80
2019-04-22T10:49:06.276Z,1.80
2019-04-22T10:50:05.101Z,1.80
2019-04-22T10:51:06.450Z,1.80
2019-04-22T10:52:05.111Z,1.90
2019-04-22T10:53:05.703Z,1.90
2019-04-22T10:54:05.314Z,1.80
2019-04-22T10:55:05.466Z,1.80
2019-04-22T10:56:05.300Z,1.90
2019-04-22T10:57:06.601Z,1.80
2019-04-22T10:58:06.360Z,1.70
2019-04-22T10:59:06.629Z,1.70
2019-04-22T11:00:05.208Z,1.80
2019-04-22T11:01:05.458Z,1.80
2019-04-22T11:02:05.574Z,1.80
2019-04-22T11:03:06.391Z,1.90
2019-04-22T11:04:05.233Z,1.80
2019-04-22T11:05:06.135Z,1.90
2019-04-22T11:06:05.586Z,1.90
2019-04-22T11:07:07.646Z,1.80
2019-04-22T11:08:08.024Z,1.90
2019-04-22T11:09:06.750Z,1.90
2019-04-22T11:10:21.760Z,1.90
2019-04-22T11:11:18.904Z,2.00
2019-04-22T11:12:12.965Z,2.00
2019-04-22T11:13:05.326Z,1.90
2019-04-22T11:14:07.133Z,1.90
2019-04-22T11:15:05.623Z,1.90
2019-04-22T11:16:05.604Z,1.80
2019-04-22T11:17:06.927Z,1.90
2019-04-22T11:18:05.378Z,1.90
2019-04-22T11:19:05.579Z,1.90
2019-04-22T11:20:05.820Z,1.90
2019-04-22T11:21:05.484Z,1.90
2019-04-22T11:22:12.848Z,1.80
2019-04-22T11:23:06.746Z,1.90
2019-04-22T11:24:05.443Z,1.90
2019-04-22T11:25:05.666Z,1.90
2019-04-22T11:26:05.922Z,2.00
2019-04-22T11:27:05.475Z,1.90
2019-04-22T11:28:05.697Z,1.80
2019-04-22T11:29:05.495Z,1.80
2019-04-22T11:30:05.827Z,1.80
2019-04-22T11:31:06.216Z,1.80
2019-04-22T11:32:06.330Z,1.80
2019-04-22T11:33:06.796Z,1.70
2019-04-22T11:34:06.246Z,1.60
2019-04-22T11:35:05.939Z,1.70
2019-04-22T11:36:06.154Z,1.60
2019-04-22T11:37:05.575Z,1.50
2019-04-22T11:38:06.630Z,1.50
2019-04-22T11:39:09.006Z,1.50
2019-04-22T11:40:16.589Z,1.50
2019-04-22T11:41:07.114Z,1.50
2019-04-22T11:42:05.625Z,1.40
2019-04-22T11:43:06.130Z,1.40
2019-04-22T11:44:05.643Z,1.40
2019-04-22T11:45:05.653Z,1.30
2019-04-22T11:46:07.203Z,1.30
2019-04-22T11:47:05.670Z,1.30
2019-04-22T11:48:05.682Z,1.30
2019-04-22T11:49:05.924Z,1.30
2019-04-22T11:50:06.006Z,1.30
2019-04-22T11:51:06.217Z,1.30
2019-04-22T11:52:08.689Z,1.30
2019-04-22T11:53:06.974Z,1.30
2019-04-22T11:54:07.036Z,1.20
2019-04-22T11:55:06.653Z,1.20
2019-04-22T11:56:06.879Z,1.20
2019-04-22T11:57:07.291Z,1.30
2019-04-22T11:58:06.620Z,1.20
2019-04-22T11:59:06.750Z,1.20
2019-04-22T12:00:06.974Z,1.20
2019-04-22T12:01:06.609Z,1.20
2019-04-22T12:02:06.750Z,1.20
2019-04-22T12:03:07.233Z,1.30
2019-04-22T12:04:05.843Z,1.30
2019-04-22T12:05:06.076Z,1.20
2019-04-22T12:06:06.055Z,1.20
2019-04-22T12:07:05.972Z,1.10
2019-04-22T12:08:07.150Z,1.00
2019-04-22T12:09:05.874Z,1.00
2019-04-22T12:10:18.916Z,1.00
2019-04-22T12:11:07.821Z,1.00
2019-04-22T12:12:05.907Z,0.90
2019-04-22T12:13:06.286Z,0.90
2019-04-22T12:14:06.232Z,0.90
2019-04-22T12:15:06.395Z,0.90
2019-04-22T12:16:07.335Z,0.80
2019-04-22T12:17:05.940Z,0.80
2019-04-22T12:18:07.024Z,0.80
2019-04-22T12:19:07.090Z,0.70
2019-04-22T12:20:08.737Z,0.70
2019-04-22T12:21:05.969Z,0.70
2019-04-22T12:22:07.167Z,0.70
2019-04-22T12:23:07.393Z,0.70
2019-04-22T12:24:05.993Z,0.70
2019-04-22T12:25:06.389Z,0.70
2019-04-22T12:26:12.739Z,0.70
2019-04-22T12:27:06.391Z,0.70
2019-04-22T12:28:06.024Z,0.70
2019-04-22T12:29:07.064Z,0.70
2019-04-22T12:30:06.908Z,0.70
2019-04-22T12:31:06.041Z,0.70
2019-04-22T12:32:07.407Z,0.70
2019-04-22T12:33:10.265Z,0.70
2019-04-22T12:34:06.635Z,0.60
2019-04-22T12:35:07.346Z,0.60
2019-04-22T12:36:06.502Z,0.60
2019-04-22T12:37:06.767Z,0.60
2019-04-22T12:38:08.672Z,0.60
2019-04-22T12:39:07.528Z,0.60
2019-04-22T12:40:06.484Z,0.60
2019-04-22T12:41:09.964Z,0.60
2019-04-22T12:42:06.274Z,0.60
2019-04-22T12:43:08.187Z,0.50
2019-04-22T12:44:07.473Z,0.50
2019-04-22T12:45:06.530Z,0.50
2019-04-22T12:46:06.138Z,0.50
2019-04-22T12:47:07.902Z,0.50
2019-04-22T12:48:06.448Z,0.40
2019-04-22T12:49:06.153Z,0.50
2019-04-22T12:50:12.317Z,0.40
2019-04-22T12:51:07.049Z,0.40
2019-04-22T12:52:07.262Z,0.50
2019-04-22T12:53:10.623Z,0.40
2019-04-22T12:54:06.875Z,0.40
2019-04-22T12:55:06.182Z,0.40
2019-04-22T12:56:07.049Z,0.40
2019-04-22T12:57:06.191Z,0.40
2019-04-22T12:58:07.637Z,0.40
2019-04-22T12:59:07.561Z,0.40
2019-04-22T13:00:06.203Z,0.40
2019-04-22T13:01:06.821Z,0.40
2019-04-22T13:02:07.177Z,0.40
2019-04-22T13:03:07.260Z,0.40
2019-04-22T13:04:09.575Z,0.40
2019-04-22T13:05:06.222Z,0.40
2019-04-22T13:06:07.693Z,0.30
2019-04-22T13:07:06.228Z,0.30
2019-04-22T13:08:07.575Z,0.30
2019-04-22T13:09:06.288Z,0.30
2019-04-22T13:10:06.249Z,0.40
2019-04-22T13:11:12.022Z,0.30
2019-04-22T13:12:06.913Z,0.30
2019-04-22T13:13:07.136Z,0.30
2019-04-22T13:14:07.179Z,0.30
2019-04-22T13:15:07.870Z,0.30
2019-04-22T13:16:06.984Z,0.30
2019-04-22T13:17:06.314Z,0.30
2019-04-22T13:18:16.906Z,0.30
2019-04-22T13:19:11.341Z,0.30
2019-04-22T13:20:06.264Z,0.30
2019-04-22T13:21:06.626Z,0.30
2019-04-22T13:22:07.057Z,0.30
2019-04-22T13:23:07.546Z,0.30
2019-04-22T13:24:07.067Z,0.30
2019-04-22T13:25:06.277Z,0.30
2019-04-22T13:26:07.417Z,0.30
2019-04-22T13:27:06.676Z,0.30
2019-04-22T13:28:07.237Z,0.30
2019-04-22T13:29:07.330Z,0.30
2019-04-22T13:30:06.373Z,0.30
2019-04-22T13:31:07.587Z,0.30
2019-04-22T13:32:06.892Z,0.30
2019-04-22T13:33:07.097Z,0.30
2019-04-22T13:34:10.554Z,0.30
2019-04-22T13:35:07.118Z,0.30
2019-04-22T13:36:07.883Z,0.40
2019-04-22T13:37:07.382Z,0.40
2019-04-22T13:38:06.892Z,0.40
2019-04-22T13:39:06.966Z,0.40
2019-04-22T13:40:07.376Z,0.40
2019-04-22T13:41:19.226Z,0.40
2019-04-22T13:42:11.882Z,0.30
2019-04-22T13:43:07.102Z,0.30
2019-04-22T13:44:07.051Z,0.30
2019-04-22T13:45:07.605Z,0.30
2019-04-22T13:46:06.357Z,0.30
2019-04-22T13:47:19.790Z,0.30
2019-04-22T13:48:24.092Z,0.30
2019-04-22T13:49:38.253Z,0.30
2019-04-22T13:50:44.256Z,0.30
2019-04-22T13:51:36.423Z,0.30
2019-04-22T13:55:34.305Z,0.20
2019-04-22T13:56:24.893Z,0.30
2019-04-22T13:57:27.655Z,0.30
2019-04-22T13:58:18.556Z,0.30
2019-04-22T13:59:16.707Z,0.20
2019-04-22T14:00:08.052Z,0.30
2019-04-22T14:01:06.943Z,0.30
2019-04-22T14:02:06.549Z,0.30
2019-04-22T14:03:06.838Z,0.30
2019-04-22T14:04:07.080Z,0.30
2019-04-22T14:05:06.572Z,0.30
2019-04-22T14:06:06.858Z,0.30
2019-04-22T14:07:07.138Z,0.30
2019-04-22T14:08:08.214Z,0.30
2019-04-22T14:09:07.460Z,0.30
2019-04-22T14:10:06.661Z,0.30
2019-04-22T14:11:20.704Z,0.30
2019-04-22T14:12:08.238Z,0.30
2019-04-22T14:13:07.743Z,0.30
2019-04-22T14:14:06.982Z,0.30
2019-04-22T14:15:06.400Z,0.30
2019-04-22T14:16:06.822Z,0.30
2019-04-22T14:17:07.206Z,0.30
2019-04-22T14:18:07.296Z,0.30
2019-04-22T14:19:07.734Z,0.30
2019-04-22T14:20:06.751Z,0.30
2019-04-22T14:21:06.944Z,0.30
2019-04-22T14:22:07.652Z,0.30
2019-04-22T14:23:07.917Z,0.30
2019-04-22T14:24:07.315Z,0.30
2019-04-22T14:25:06.968Z,0.30
2019-04-22T14:26:07.217Z,0.30
2019-04-22T14:27:24.670Z,0.30
2019-04-22T14:28:13.055Z,0.30
2019-04-22T14:29:07.896Z,0.30
2019-04-22T14:30:06.524Z,0.30
2019-04-22T14:31:06.705Z,0.30
2019-04-22T14:32:13.318Z,0.30
2019-04-22T14:33:06.841Z,0.30
2019-04-22T14:34:08.142Z,0.30
2019-04-22T14:35:07.047Z,0.30
2019-04-22T14:36:07.439Z,0.30
2019-04-22T14:37:06.431Z,0.30
2019-04-22T14:38:08.174Z,0.30
2019-04-22T14:39:06.442Z,0.30
2019-04-22T14:40:09.215Z,0.30
2019-04-22T14:41:08.183Z,0.30
2019-04-22T14:42:21.712Z,0.30
2019-04-22T14:45:30.760Z,0.30
2019-04-22T14:46:34.960Z,0.30
2019-04-22T14:47:34.616Z,0.30
2019-04-22T14:48:38.717Z,0.30
2019-04-22T14:49:31.466Z,0.30
2019-04-22T14:50:29.294Z,0.30
2019-04-22T14:51:16.134Z,0.30
2019-04-22T14:52:28.479Z,0.30
2019-04-22T14:53:29.041Z,0.20
2019-04-22T14:54:22.834Z,0.30
2019-04-22T14:55:13.810Z,0.30
2019-04-22T14:56:06.616Z,0.30
2019-04-22T14:57:07.400Z,0.30
2019-04-22T14:58:06.860Z,0.30
2019-04-22T14:59:07.005Z,0.30
2019-04-22T15:00:06.477Z,0.30
2019-04-22T15:01:06.809Z,0.30
2019-04-22T15:02:07.581Z,0.30
2019-04-22T15:03:07.961Z,0.30
2019-04-22T15:04:06.484Z,0.30
2019-04-22T15:05:08.029Z,0.30
2019-04-22T15:06:06.535Z,0.30
2019-04-22T15:07:07.343Z,0.30
2019-04-22T15:08:07.075Z,0.30
2019-04-22T15:09:07.914Z,0.30
2019-04-22T15:10:06.499Z,0.30
2019-04-22T15:11:06.501Z,0.30
2019-04-22T15:12:17.542Z,0.20
2019-04-22T15:13:07.346Z,0.30
2019-04-22T15:14:07.620Z,0.30
2019-04-22T15:15:06.511Z,0.30
2019-04-22T15:16:07.782Z,0.30
2019-04-22T15:17:06.904Z,0.30
2019-04-22T15:18:07.883Z,0.30
2019-04-22T15:19:07.652Z,0.30
2019-04-22T15:20:07.839Z,0.20
2019-04-22T15:21:06.892Z,0.30
2019-04-22T15:22:06.534Z,0.30
2019-04-22T15:23:06.752Z,0.20